createdAt,value
2023-03-05T15:22:12.553Z,57.80
2023-03-05T15:26:23.375Z,60.10
2023-03-05T15:28:50.206Z,59.90
2023-03-05T15:31:18.256Z,58.80
2023-03-05T15:33:45.143Z,58.00
2023-03-05T15:36:12.083Z,57.40
2023-03-05T15:38:38.944Z,56.80
2023-03-05T15:41:06.134Z,56.10
2023-03-05T15:45:18.655Z,52.60
2023-03-05T15:47:45.522Z,39.60
2023-03-05T15:50:12.295Z,41.80
2023-03-05T15:52:39.071Z,42.90
2023-03-05T15:55:06.357Z,43.60
2023-03-05T15:57:37.390Z,44.10
2023-03-05T16:00:07.192Z,44.70
2023-03-05T16:02:36.854Z,45.40
2023-03-05T16:05:04.377Z,45.80
2023-03-05T16:07:33.121Z,46.60
2023-03-05T16:10:00.067Z,47.30
2023-03-05T16:12:33.075Z,47.90
2023-03-05T16:14:59.835Z,48.50
2023-03-05T16:17:26.607Z,48.90
2023-03-05T16:19:54.985Z,49.30
2023-03-05T16:22:21.784Z,49.90
2023-03-05T16:24:48.522Z,50.20
2023-03-05T16:27:15.425Z,50.80
2023-03-05T16:29:42.638Z,51.20
2023-03-05T16:32:09.754Z,51.70
2023-03-05T16:34:36.561Z,52.30
2023-03-05T16:37:06.737Z,52.50
2023-03-05T16:39:33.784Z,52.90
2023-03-05T16:42:00.892Z,53.20
2023-03-05T16:44:27.708Z,53.30
2023-03-05T16:46:56.310Z,53.60
2023-03-05T16:49:23.296Z,53.80
2023-03-05T16:51:50.032Z,54.20
2023-03-05T16:54:16.709Z,54.30
2023-03-05T16:56:43.481Z,54.50
2023-03-05T16:59:11.566Z,54.70
2023-03-05T17:01:38.363Z,54.70
2023-03-05T17:04:05.309Z,54.90
2023-03-05T17:06:33.471Z,55.10
